Hamilton, Mississippi
Current Conditions -  °F | °C
As of 11:58 PM on Sunday 23 Nov 2014 (Local Time) from KCBM Reporting Station
Clear Clear  
Wind Chill: 61°   Ceiling: Unl
Heat Index: 61°   Visibility: 10mi
Dew Point: 58°   Wind: 12mph
Humidity: 88%   Direction: 190°S
Pressure: 29.6"   Gusts: NA
Location:  33.75°N, 88.4°W
Report Text: KCBM 240558Z AUTO 19010KT 10SM CLR 16/14 A2960 RMK AO2 SLP025 T01610142 10180 20160 401990144 51011 $
Loading
Personal Weather Stations






























Interactive Weather Map New forecast layout! Learn more

10-Day Weather Forecast

Advertisements
Track Severe Weather on mobile